Time;durP1;ratioP1;P1;durP2;ratioP2;P2;SDS_P1;SDS_P2;PMS_P1;PMS_P2;Temp;Humidity;BMP_temperature;BMP_pressure;BME280_temperature;BME280_humidity;BME280_pressure;Samples;Min_cycle;Max_cycle;Signal;HPM_P1;HPM_P2
2021/11/11 00:01:19;;;;;;;0.57;0.32;;;;;;;;;;5056606;28;20296;-65
2021/11/11 00:03:44;;;;;;;1.02;0.22;;;;;;;;;;5056576;28;20456;-66
2021/11/11 00:06:10;;;;;;;3.80;0.60;;;;;;;;;;5056721;28;20029;-66
2021/11/11 00:08:36;;;;;;;1.25;0.10;;;;;;;;;;5056480;28;20021;-65
2021/11/11 00:11:02;;;;;;;1.77;0.20;;;;;;;;;;5056395;28;20092;-65
2021/11/11 00:13:27;;;;;;;4.03;0.63;;;;;;;;;;5056406;28;20415;-65
2021/11/11 00:15:53;;;;;;;1.48;0.38;;;;;;;;;;5056343;28;20021;-65
2021/11/11 00:18:19;;;;;;;0.57;0.20;;;;;;;;;;5055041;28;20448;-65
2021/11/11 00:20:46;;;;;;;1.50;0.20;;;;;;;;;;5056429;28;20025;-65
2021/11/11 00:23:12;;;;;;;0.77;0.13;;;;;;;;;;5056345;28;20112;-66
2021/11/11 00:25:39;;;;;;;2.05;0.57;;;;;;;;;;5056263;28;20107;-65
2021/11/11 00:28:05;;;;;;;0.22;0.10;;;;;;;;;;5055870;28;20025;-66
2021/11/11 00:30:30;;;;;;;0.68;0.15;;;;;;;;;;5056396;28;20087;-65
2021/11/11 00:32:56;;;;;;;1.23;0.20;;;;;;;;;;5056055;28;20009;-65
2021/11/11 00:35:23;;;;;;;0.95;0.08;;;;;;;;;;5056222;28;20017;-66
2021/11/11 00:37:49;;;;;;;0.82;0.20;;;;;;;;;;5056080;28;20028;-65
2021/11/11 00:40:14;;;;;;;2.47;0.30;;;;;;;;;;5056214;28;20021;-66
2021/11/11 00:42:40;;;;;;;1.15;0.20;;;;;;;;;;5055759;28;20021;-66
2021/11/11 00:45:05;;;;;;;0.50;0.15;;;;;;;;;;5055969;28;20045;-66
2021/11/11 00:47:31;;;;;;;1.45;0.25;;;;;;;;;;5055939;28;20021;-66
2021/11/11 00:49:56;;;;;;;2.33;0.35;;;;;;;;;;5055769;28;20021;-66
2021/11/11 00:52:22;;;;;;;2.10;0.25;;;;;;;;;;5056080;28;20021;-65
2021/11/11 00:54:47;;;;;;;2.22;0.32;;;;;;;;;;5055752;28;20502;-65
2021/11/11 00:57:13;;;;;;;0.60;0.10;;;;;;;;;;5055741;28;20070;-66
2021/11/11 00:59:41;;;;;;;1.90;0.28;;;;;;;;;;5055468;28;20023;-66
2021/11/11 01:02:08;;;;;;;1.17;0.55;;;;;;;;;;5055653;28;20041;-66
2021/11/11 01:04:34;;;;;;;1.55;0.38;;;;;;;;;;5054961;28;20399;-66
2021/11/11 01:06:59;;;;;;;1.17;0.20;;;;;;;;;;5055476;28;20032;-66
2021/11/11 01:09:28;;;;;;;2.13;0.32;;;;;;;;;;5055629;28;20032;-66
2021/11/11 01:11:56;;;;;;;1.60;0.70;;;;;;;;;;5055510;28;20104;-66
2021/11/11 01:14:21;;;;;;;1.17;0.20;;;;;;;;;;5055425;28;20411;-66
2021/11/11 01:16:46;;;;;;;0.47;0.10;;;;;;;;;;5055368;28;20020;-66
2021/11/11 01:19:12;;;;;;;2.47;0.20;;;;;;;;;;5055473;28;20089;-66
2021/11/11 01:21:38;;;;;;;0.52;0.17;;;;;;;;;;5053831;28;20029;-66
2021/11/11 01:24:03;;;;;;;0.95;0.28;;;;;;;;;;5055215;28;20021;-66
2021/11/11 01:26:29;;;;;;;1.63;0.28;;;;;;;;;;5053970;28;20071;-66
2021/11/11 01:28:54;;;;;;;1.40;0.20;;;;;;;;;;5055025;28;20064;-66
2021/11/11 01:31:19;;;;;;;0.65;0.15;;;;;;;;;;5055249;28;20028;-66
2021/11/11 01:33:45;;;;;;;2.47;0.38;;;;;;;;;;5054943;28;20036;-66
2021/11/11 01:36:10;;;;;;;0.65;0.10;;;;;;;;;;5054803;28;20021;-66
2021/11/11 01:38:36;;;;;;;1.73;0.40;;;;;;;;;;5046907;28;20025;-66
2021/11/11 01:41:01;;;;;;;1.98;0.30;;;;;;;;;;5034539;28;20052;-66
2021/11/11 01:43:27;;;;;;;1.08;0.20;;;;;;;;;;5034998;28;20449;-67
2021/11/11 01:45:52;;;;;;;0.70;0.15;;;;;;;;;;5034606;28;20136;-67
2021/11/11 01:48:17;;;;;;;1.02;0.40;;;;;;;;;;5034888;28;20025;-66
2021/11/11 01:50:44;;;;;;;1.42;0.20;;;;;;;;;;5034818;28;20010;-65
2021/11/11 01:53:11;;;;;;;1.95;0.17;;;;;;;;;;5034869;28;20014;-66
2021/11/11 01:55:40;;;;;;;2.47;0.35;;;;;;;;;;5033570;28;20014;-67
2021/11/11 01:58:07;;;;;;;1.05;0.40;;;;;;;;;;5034704;28;20105;-66
2021/11/11 02:00:34;;;;;;;0.75;0.13;;;;;;;;;;5034545;28;20029;-66
2021/11/11 02:03:00;;;;;;;1.05;0.22;;;;;;;;;;5034300;28;20050;-66
2021/11/11 02:05:27;;;;;;;1.80;0.60;;;;;;;;;;5034549;28;20037;-66
2021/11/11 02:07:52;;;;;;;1.40;0.60;;;;;;;;;;5034060;28;20400;-65
2021/11/11 02:10:18;;;;;;;0.20;0.10;;;;;;;;;;5034536;28;20014;-66
2021/11/11 02:12:45;;;;;;;2.28;0.43;;;;;;;;;;5034481;28;20054;-66
2021/11/11 02:15:11;;;;;;;2.35;0.13;;;;;;;;;;5033360;28;20416;-66
2021/11/11 02:17:36;;;;;;;1.00;0.20;;;;;;;;;;5034019;28;20017;-66
2021/11/11 02:20:06;;;;;;;0.85;0.20;;;;;;;;;;5034277;28;20025;-66
2021/11/11 02:22:33;;;;;;;1.13;0.20;;;;;;;;;;5033965;28;20018;-66
2021/11/11 02:24:58;;;;;;;2.20;0.40;;;;;;;;;;5033981;28;20041;-67
2021/11/11 02:27:23;;;;;;;1.63;0.90;;;;;;;;;;5032546;28;20025;-65
2021/11/11 02:29:50;;;;;;;0.65;0.20;;;;;;;;;;5034068;28;20712;-67
2021/11/11 02:32:15;;;;;;;2.25;0.43;;;;;;;;;;5032938;28;20058;-66
2021/11/11 02:34:41;;;;;;;2.20;0.20;;;;;;;;;;5032920;28;20100;-66
2021/11/11 02:37:06;;;;;;;1.83;0.30;;;;;;;;;;5033842;28;20091;-65
2021/11/11 02:39:33;;;;;;;0.98;0.15;;;;;;;;;;5049548;28;20126;-66
2021/11/11 02:41:59;;;;;;;1.10;0.38;;;;;;;;;;5053634;28;20417;-66
2021/11/11 02:44:24;;;;;;;1.35;0.20;;;;;;;;;;5052601;28;20444;-67
2021/11/11 02:46:50;;;;;;;1.08;0.25;;;;;;;;;;5053712;28;20025;-66
2021/11/11 02:49:15;;;;;;;1.25;0.50;;;;;;;;;;5053451;28;20033;-66
2021/11/11 02:51:40;;;;;;;0.25;0.20;;;;;;;;;;5053617;28;20017;-66
2021/11/11 02:54:05;;;;;;;1.03;0.20;;;;;;;;;;5053624;28;20364;-66
2021/11/11 02:56:31;;;;;;;0.95;0.10;;;;;;;;;;5053615;28;20274;-67
2021/11/11 02:58:57;;;;;;;1.70;0.23;;;;;;;;;;5053453;28;20332;-66
2021/11/11 03:01:22;;;;;;;2.50;0.30;;;;;;;;;;5053504;28;20657;-66
2021/11/11 03:03:47;;;;;;;1.23;0.30;;;;;;;;;;5053441;28;20029;-66
2021/11/11 03:06:14;;;;;;;1.35;0.20;;;;;;;;;;5053581;28;20032;-66
2021/11/11 03:08:40;;;;;;;2.45;0.40;;;;;;;;;;5053274;28;20029;-66
2021/11/11 03:11:05;;;;;;;1.02;0.20;;;;;;;;;;5053380;28;20404;-66
2021/11/11 03:13:30;;;;;;;2.13;0.30;;;;;;;;;;5053365;28;20053;-66
2021/11/11 03:15:56;;;;;;;1.05;0.38;;;;;;;;;;5053328;28;20063;-66
2021/11/11 03:18:21;;;;;;;2.05;0.13;;;;;;;;;;5053316;28;20375;-66
2021/11/11 03:20:47;;;;;;;1.20;0.20;;;;;;;;;;5053520;28;20048;-66
2021/11/11 03:23:12;;;;;;;0.35;0.13;;;;;;;;;;5053382;28;20020;-67
2021/11/11 03:25:37;;;;;;;2.00;0.20;;;;;;;;;;5053391;28;20379;-66
2021/11/11 03:28:04;;;;;;;2.75;0.47;;;;;;;;;;5057182;28;20075;-66
2021/11/11 03:30:29;;;;;;;0.32;0.10;;;;;;;;;;5057542;28;20083;-67
2021/11/11 03:32:56;;;;;;;1.38;0.20;;;;;;;;;;5057140;28;20456;-67
2021/11/11 03:35:22;;;;;;;1.98;0.20;;;;;;;;;;5057412;28;20017;-66
2021/11/11 03:37:48;;;;;;;2.08;0.65;;;;;;;;;;5055798;28;20040;-66
2021/11/11 03:40:17;;;;;;;3.67;0.40;;;;;;;;;;5037241;28;20021;-66
2021/11/11 03:42:46;;;;;;;1.85;0.43;;;;;;;;;;5037259;28;20094;-66
2021/11/11 03:45:12;;;;;;;0.63;0.30;;;;;;;;;;5037285;28;20017;-66
2021/11/11 03:47:38;;;;;;;1.08;0.20;;;;;;;;;;5037164;28;20033;-66
2021/11/11 03:50:04;;;;;;;0.98;0.20;;;;;;;;;;5036919;28;20028;-66
2021/11/11 03:52:32;;;;;;;0.77;0.20;;;;;;;;;;5036991;28;20461;-66
2021/11/11 03:54:57;;;;;;;1.77;0.20;;;;;;;;;;5036656;28;20440;-66
2021/11/11 03:57:22;;;;;;;2.65;0.43;;;;;;;;;;5037004;28;20060;-66
2021/11/11 03:59:48;;;;;;;3.35;0.50;;;;;;;;;;5036955;28;20024;-66
2021/11/11 04:02:13;;;;;;;1.20;0.20;;;;;;;;;;5036530;28;20045;-68
2021/11/11 04:04:39;;;;;;;0.77;0.20;;;;;;;;;;5036807;28;20020;-67
2021/11/11 04:07:04;;;;;;;1.00;0.22;;;;;;;;;;5036565;28;20084;-66
2021/11/11 04:09:29;;;;;;;1.33;0.50;;;;;;;;;;5036535;28;20029;-66
2021/11/11 04:11:55;;;;;;;1.63;0.50;;;;;;;;;;5036837;28;20556;-66
2021/11/11 04:14:20;;;;;;;1.17;0.13;;;;;;;;;;5036788;28;20516;-66
2021/11/11 04:16:45;;;;;;;0.88;0.15;;;;;;;;;;5036604;28;20017;-66
2021/11/11 04:19:11;;;;;;;0.47;0.13;;;;;;;;;;5036802;28;20100;-66
2021/11/11 04:21:38;;;;;;;0.47;0.20;;;;;;;;;;5036618;28;20017;-66
2021/11/11 04:24:04;;;;;;;1.85;0.63;;;;;;;;;;5036198;28;20026;-66
2021/11/11 04:26:32;;;;;;;2.08;0.30;;;;;;;;;;5036688;28;20025;-66
2021/11/11 04:29:01;;;;;;;1.38;0.20;;;;;;;;;;5036097;28;20478;-66
2021/11/11 04:31:30;;;;;;;1.35;0.35;;;;;;;;;;5036633;28;20028;-66
2021/11/11 04:33:59;;;;;;;0.95;0.10;;;;;;;;;;5036371;28;20456;-67
2021/11/11 04:36:54;;;;;;;1.25;0.30;;;;;;;;;;5036687;28;20025;-67
2021/11/11 04:39:45;;;;;;;0.52;0.10;;;;;;;;;;5048706;28;20031;-67
2021/11/11 04:45:07;;;;;;;1.38;0.20;;;;;;;;;;5056325;28;20021;-67
2021/11/11 04:47:46;;;;;;;2.25;0.30;;;;;;;;;;5055988;28;20017;-67
2021/11/11 05:01:20;;;;;;;0.85;0.20;;;;;;;;;;5055691;28;20059;-66
2021/11/11 05:03:48;;;;;;;1.92;0.43;;;;;;;;;;5055804;28;20021;-67
2021/11/11 05:06:15;;;;;;;1.25;0.38;;;;;;;;;;5055678;28;20020;-66
2021/11/11 05:08:40;;;;;;;0.25;0.10;;;;;;;;;;5055426;28;20040;-66
2021/11/11 05:11:05;;;;;;;1.52;0.20;;;;;;;;;;5055564;28;20020;-66
2021/11/11 05:13:31;;;;;;;1.40;0.30;;;;;;;;;;5055452;28;20055;-67
2021/11/11 05:15:56;;;;;;;1.08;0.20;;;;;;;;;;5055415;28;20063;-66
2021/11/11 05:18:23;;;;;;;2.03;0.63;;;;;;;;;;5055449;28;20025;-66
2021/11/11 05:20:49;;;;;;;1.95;0.22;;;;;;;;;;5055179;28;20063;-66
2021/11/11 05:23:14;;;;;;;0.95;0.10;;;;;;;;;;5055065;28;20025;-66
2021/11/11 05:25:40;;;;;;;1.50;0.30;;;;;;;;;;5055380;28;20028;-66
2021/11/11 05:28:05;;;;;;;1.95;0.20;;;;;;;;;;5054977;28;20021;-66
2021/11/11 05:30:32;;;;;;;1.23;0.10;;;;;;;;;;5055201;28;20036;-66
2021/11/11 05:32:57;;;;;;;2.08;0.13;;;;;;;;;;5055055;28;20009;-66
2021/11/11 05:35:22;;;;;;;1.30;0.13;;;;;;;;;;5055078;28;20138;-66
2021/11/11 05:37:48;;;;;;;3.65;0.40;;;;;;;;;;5054984;28;20091;-65
2021/11/11 05:40:15;;;;;;;2.08;0.32;;;;;;;;;;5054899;28;20020;-66
2021/11/11 05:42:40;;;;;;;3.75;0.28;;;;;;;;;;5054998;28;20036;-66
2021/11/11 05:45:07;;;;;;;3.00;0.20;;;;;;;;;;5054664;28;20455;-66
2021/11/11 05:47:32;;;;;;;0.60;0.30;;;;;;;;;;5054612;28;20502;-66
2021/11/11 05:49:58;;;;;;;0.47;0.03;;;;;;;;;;5054531;28;20016;-66
2021/11/11 05:52:24;;;;;;;1.98;0.10;;;;;;;;;;5054810;28;20055;-66
2021/11/11 05:54:49;;;;;;;0.55;0.22;;;;;;;;;;5054637;28;20440;-66
2021/11/11 05:57:14;;;;;;;1.80;0.55;;;;;;;;;;5054639;28;20472;-67
2021/11/11 05:59:40;;;;;;;1.98;0.50;;;;;;;;;;5054458;28;20017;-66
2021/11/11 06:02:10;;;;;;;0.17;0.10;;;;;;;;;;5054363;28;20661;-66
2021/11/11 06:04:37;;;;;;;2.15;0.30;;;;;;;;;;5054471;28;20029;-66
2021/11/11 06:07:03;;;;;;;1.48;0.20;;;;;;;;;;5054200;28;20575;-66
2021/11/11 06:09:28;;;;;;;0.50;0.30;;;;;;;;;;5054419;28;20111;-66
2021/11/11 06:11:53;;;;;;;1.35;0.17;;;;;;;;;;5054207;28;20017;-65
2021/11/11 06:14:18;;;;;;;1.80;0.38;;;;;;;;;;5054032;28;20364;-66
2021/11/11 06:16:44;;;;;;;1.63;0.50;;;;;;;;;;5052907;28;20013;-65
2021/11/11 06:19:10;;;;;;;1.30;0.13;;;;;;;;;;5054277;28;20032;-65
2021/11/11 06:21:37;;;;;;;2.10;0.50;;;;;;;;;;5054096;28;20021;-66
2021/11/11 06:24:03;;;;;;;1.55;0.30;;;;;;;;;;5053988;28;20028;-66
2021/11/11 06:26:30;;;;;;;1.17;0.20;;;;;;;;;;5054291;28;20123;-67
2021/11/11 06:28:55;;;;;;;0.93;0.10;;;;;;;;;;5052747;28;20025;-66
2021/11/11 06:31:20;;;;;;;3.23;0.27;;;;;;;;;;5053998;28;20020;-66
2021/11/11 06:33:45;;;;;;;0.35;0.17;;;;;;;;;;5053896;28;20601;-65
2021/11/11 06:36:11;;;;;;;1.93;0.20;;;;;;;;;;5053933;28;20016;-66
2021/11/11 06:38:36;;;;;;;2.63;0.75;;;;;;;;;;5045778;28;20717;-66
2021/11/11 06:41:02;;;;;;;2.20;0.28;;;;;;;;;;5033786;28;20052;-66
2021/11/11 06:43:28;;;;;;;2.75;0.22;;;;;;;;;;5033780;28;20032;-66
2021/11/11 06:45:54;;;;;;;1.65;0.20;;;;;;;;;;5033748;28;20017;-66
2021/11/11 06:48:20;;;;;;;0.55;0.10;;;;;;;;;;5033740;28;20025;-66
2021/11/11 06:50:46;;;;;;;1.52;0.30;;;;;;;;;;5033763;28;20353;-64
2021/11/11 06:53:14;;;;;;;1.42;0.22;;;;;;;;;;5032342;28;20044;-66
2021/11/11 06:55:42;;;;;;;2.67;0.10;;;;;;;;;;5033622;28;20017;-66
2021/11/11 06:58:07;;;;;;;0.88;0.20;;;;;;;;;;5033501;28;20022;-66
2021/11/11 07:00:33;;;;;;;0.95;0.10;;;;;;;;;;5032959;28;20491;-67
2021/11/11 07:02:58;;;;;;;0.60;0.10;;;;;;;;;;5032005;28;20105;-67
2021/11/11 07:05:23;;;;;;;1.83;0.20;;;;;;;;;;5033663;28;20026;-68
2021/11/11 07:07:49;;;;;;;5.93;0.52;;;;;;;;;;5037581;28;20486;-67
2021/11/11 07:10:15;;;;;;;0.75;0.20;;;;;;;;;;5040758;28;20020;-66
2021/11/11 07:12:40;;;;;;;2.05;0.30;;;;;;;;;;5034259;28;20372;-70
2021/11/11 07:15:07;;;;;;;0.60;0.15;;;;;;;;;;5033449;28;20022;-71
2021/11/11 07:17:34;;;;;;;2.45;0.30;;;;;;;;;;5041523;28;20047;-70
2021/11/11 07:20:01;;;;;;;1.02;0.38;;;;;;;;;;5033241;28;20403;-70
2021/11/11 07:22:26;;;;;;;1.27;0.22;;;;;;;;;;5036818;28;20025;-71
2021/11/11 07:24:52;;;;;;;2.60;0.30;;;;;;;;;;5032667;28;20017;-70
2021/11/11 07:27:18;;;;;;;1.45;0.20;;;;;;;;;;5049952;28;20055;-71
2021/11/11 07:29:44;;;;;;;0.38;0.10;;;;;;;;;;5051694;28;20027;-71
2021/11/11 07:32:09;;;;;;;1.40;0.20;;;;;;;;;;5036780;28;20017;-70
2021/11/11 07:34:36;;;;;;;1.20;0.30;;;;;;;;;;5033350;28;20391;-70
2021/11/11 07:37:02;;;;;;;1.45;0.17;;;;;;;;;;5033007;28;20017;-71
2021/11/11 07:39:27;;;;;;;1.88;0.28;;;;;;;;;;5036447;28;20071;-71
2021/11/11 07:41:52;;;;;;;0.43;0.10;;;;;;;;;;5014128;28;20033;-71
2021/11/11 07:44:17;;;;;;;1.05;0.20;;;;;;;;;;5038978;28;20029;-71
2021/11/11 07:46:45;;;;;;;1.77;0.20;;;;;;;;;;5045415;28;20013;-70
2021/11/11 07:49:11;;;;;;;1.80;0.40;;;;;;;;;;5031994;28;20028;-71
2021/11/11 07:51:36;;;;;;;0.50;0.30;;;;;;;;;;5033035;28;20013;-70
2021/11/11 07:54:03;;;;;;;0.60;0.35;;;;;;;;;;5030227;28;20360;-71
2021/11/11 07:56:29;;;;;;;0.93;0.20;;;;;;;;;;5032525;28;20436;-71
2021/11/11 07:58:54;;;;;;;1.58;0.20;;;;;;;;;;5034463;28;20024;-71
2021/11/11 08:01:19;;;;;;;2.60;0.90;;;;;;;;;;5032390;28;20052;-70
2021/11/11 08:03:45;;;;;;;1.80;0.20;;;;;;;;;;5031885;28;20072;-70
2021/11/11 08:06:11;;;;;;;2.15;0.30;;;;;;;;;;5032285;28;20033;-71
2021/11/11 08:08:36;;;;;;;2.95;0.43;;;;;;;;;;5035129;28;20490;-70
2021/11/11 08:11:02;;;;;;;0.73;0.35;;;;;;;;;;5038281;28;20021;-70
2021/11/11 08:13:27;;;;;;;2.13;0.20;;;;;;;;;;5034003;28;20118;-71
2021/11/11 08:15:52;;;;;;;1.55;0.20;;;;;;;;;;5040541;28;20040;-71
2021/11/11 08:18:18;;;;;;;1.10;0.22;;;;;;;;;;5043250;28;20487;-70
2021/11/11 08:20:43;;;;;;;0.93;0.30;;;;;;;;;;5041138;28;20056;-70
2021/11/11 08:23:08;;;;;;;0.95;0.30;;;;;;;;;;5040711;28;20029;-70
2021/11/11 08:25:35;;;;;;;1.48;0.30;;;;;;;;;;5035712;28;20464;-70
2021/11/11 08:28:00;;;;;;;0.60;0.13;;;;;;;;;;5035659;28;20028;-70
2021/11/11 08:30:25;;;;;;;2.20;0.22;;;;;;;;;;5038351;28;20021;-70
2021/11/11 08:32:52;;;;;;;1.42;0.20;;;;;;;;;;5035825;28;20147;-70
2021/11/11 08:35:19;;;;;;;1.42;0.30;;;;;;;;;;5034286;28;20024;-70
2021/11/11 08:37:46;;;;;;;1.35;0.30;;;;;;;;;;5034942;28;20020;-70
2021/11/11 08:40:13;;;;;;;3.00;0.93;;;;;;;;;;5035635;28;20045;-70
2021/11/11 08:42:38;;;;;;;1.98;0.30;;;;;;;;;;5040390;28;20025;-71
2021/11/11 08:45:04;;;;;;;3.85;0.35;;;;;;;;;;5035015;28;20029;-71
2021/11/11 08:47:29;;;;;;;1.48;0.10;;;;;;;;;;5046494;28;20017;-69
2021/11/11 08:49:56;;;;;;;1.65;0.68;;;;;;;;;;5041025;28;20464;-70
2021/11/11 08:52:22;;;;;;;1.77;0.30;;;;;;;;;;5045563;28;20464;-68
2021/11/11 08:54:48;;;;;;;2.13;0.32;;;;;;;;;;5035106;28;20030;-68
2021/11/11 08:57:15;;;;;;;2.80;0.30;;;;;;;;;;5037544;28;20097;-68
2021/11/11 08:59:40;;;;;;;2.22;0.30;;;;;;;;;;5035943;28;20017;-68
2021/11/11 09:02:06;;;;;;;1.33;0.30;;;;;;;;;;5036907;28;20449;-68
2021/11/11 09:04:31;;;;;;;1.27;0.35;;;;;;;;;;5034343;28;20424;-68
2021/11/11 09:06:59;;;;;;;0.65;0.10;;;;;;;;;;5034109;28;20108;-67
2021/11/11 09:09:25;;;;;;;0.88;0.20;;;;;;;;;;5033549;28;20017;-67
2021/11/11 09:11:50;;;;;;;2.75;0.30;;;;;;;;;;5037218;28;20025;-67
2021/11/11 09:14:16;;;;;;;1.58;0.28;;;;;;;;;;5052189;28;20504;-67
2021/11/11 09:16:42;;;;;;;0.52;0.10;;;;;;;;;;5032536;28;20033;-70
2021/11/11 09:19:07;;;;;;;2.10;0.40;;;;;;;;;;5020121;28;20014;-69
2021/11/11 09:21:33;;;;;;;1.40;0.35;;;;;;;;;;5043627;28;20030;-69
2021/11/11 09:23:59;;;;;;;2.67;0.35;;;;;;;;;;5034605;28;20013;-70
2021/11/11 09:26:24;;;;;;;1.58;0.28;;;;;;;;;;5044700;28;20460;-70
2021/11/11 09:28:50;;;;;;;2.55;0.30;;;;;;;;;;5034269;28;20033;-69
2021/11/11 09:31:16;;;;;;;1.17;0.22;;;;;;;;;;5034375;28;20477;-69
2021/11/11 09:33:42;;;;;;;2.38;0.30;;;;;;;;;;5034744;28;20022;-71
2021/11/11 09:36:08;;;;;;;2.70;0.38;;;;;;;;;;5034531;28;20199;-70
2021/11/11 09:38:33;;;;;;;1.48;0.30;;;;;;;;;;5034614;28;20460;-69
2021/11/11 09:40:59;;;;;;;2.50;0.50;;;;;;;;;;5034125;28;20075;-69
2021/11/11 09:43:24;;;;;;;1.25;0.40;;;;;;;;;;5045773;28;20024;-70
2021/11/11 09:45:49;;;;;;;4.00;0.38;;;;;;;;;;5054452;28;20078;-69
2021/11/11 09:48:15;;;;;;;1.67;0.30;;;;;;;;;;5054442;28;20068;-69
2021/11/11 09:50:41;;;;;;;0.95;0.22;;;;;;;;;;5054747;28;20009;-70
2021/11/11 09:53:12;;;;;;;1.13;0.35;;;;;;;;;;5054742;28;20020;-69
2021/11/11 10:01:10;;;;;;;1.00;0.20;;;;;;;;;;5054298;28;20602;-69
2021/11/11 10:03:41;;;;;;;0.85;0.10;;;;;;;;;;5054280;28;20045;-69
2021/11/11 10:06:07;;;;;;;0.95;0.13;;;;;;;;;;5054215;28;20021;-69
2021/11/11 10:08:34;;;;;;;2.15;0.20;;;;;;;;;;5054156;28;20029;-70
2021/11/11 10:11:00;;;;;;;0.28;0.28;;;;;;;;;;5054298;28;20017;-69
2021/11/11 10:13:26;;;;;;;0.52;0.20;;;;;;;;;;5054207;28;20044;-69
2021/11/11 10:15:57;;;;;;;1.05;0.20;;;;;;;;;;5054104;28;20017;-70
2021/11/11 10:18:39;;;;;;;2.20;0.30;;;;;;;;;;5054189;28;20017;-69
2021/11/11 10:21:18;;;;;;;1.77;0.30;;;;;;;;;;5014186;28;20069;-69
2021/11/11 10:23:43;;;;;;;2.60;0.17;;;;;;;;;;5014305;28;20018;-70
2021/11/11 10:26:16;;;;;;;0.60;0.10;;;;;;;;;;5014538;28;20026;-69
2021/11/11 10:28:42;;;;;;;1.30;0.10;;;;;;;;;;5014189;28;20325;-69
2021/11/11 10:31:14;;;;;;;2.70;0.50;;;;;;;;;;5028870;28;20037;-69
2021/11/11 10:34:00;;;;;;;1.10;0.10;;;;;;;;;;5032640;28;20344;-70
2021/11/11 10:36:57;;;;;;;1.48;0.25;;;;;;;;;;5033016;28;20029;-69
2021/11/11 10:39:27;;;;;;;1.02;0.20;;;;;;;;;;4992168;28;20442;-69
2021/11/11 10:41:53;;;;;;;2.38;0.50;;;;;;;;;;4992120;28;20038;-69
2021/11/11 10:44:20;;;;;;;1.02;0.20;;;;;;;;;;4992358;28;20389;-69
2021/11/11 10:46:48;;;;;;;1.85;0.50;;;;;;;;;;4992226;28;20041;-69
2021/11/11 10:49:20;;;;;;;1.58;0.13;;;;;;;;;;4975894;28;20393;-69
2021/11/11 10:51:45;;;;;;;1.55;0.52;;;;;;;;;;4992216;28;20569;-70
2021/11/11 10:54:11;;;;;;;2.40;0.30;;;;;;;;;;4992149;28;20060;-69
2021/11/11 10:56:43;;;;;;;1.00;0.20;;;;;;;;;;4992028;28;20069;-69
2021/11/11 10:59:19;;;;;;;1.92;0.20;;;;;;;;;;4993230;28;20493;-70
2021/11/11 11:01:45;;;;;;;1.45;0.30;;;;;;;;;;5009204;28;20124;-69
2021/11/11 11:04:23;;;;;;;0.80;0.32;;;;;;;;;;5011536;28;20058;-69
2021/11/11 11:06:49;;;;;;;0.50;0.20;;;;;;;;;;5011502;28;20113;-69
2021/11/11 11:09:14;;;;;;;1.23;0.28;;;;;;;;;;5011292;28;20109;-70
2021/11/11 11:11:41;;;;;;;1.95;0.50;;;;;;;;;;5011307;28;20022;-70
2021/11/11 11:14:17;;;;;;;3.25;0.35;;;;;;;;;;5017488;28;20039;-69
2021/11/11 11:16:44;;;;;;;0.88;0.13;;;;;;;;;;5053278;28;20028;-70
2021/11/11 11:19:13;;;;;;;1.17;0.10;;;;;;;;;;5051983;28;20021;-70
2021/11/11 11:21:44;;;;;;;0.40;0.22;;;;;;;;;;5053079;28;20067;-70
2021/11/11 11:24:15;;;;;;;0.45;0.20;;;;;;;;;;5053011;28;20025;-69
2021/11/11 11:26:44;;;;;;;1.30;0.38;;;;;;;;;;5053211;28;20028;-69
2021/11/11 11:29:19;;;;;;;1.30;0.22;;;;;;;;;;5053078;28;20025;-69
2021/11/11 11:31:52;;;;;;;1.08;0.30;;;;;;;;;;5053124;28;20371;-69
2021/11/11 11:34:25;;;;;;;0.52;0.10;;;;;;;;;;5053293;28;20009;-69
2021/11/11 11:36:51;;;;;;;1.00;0.20;;;;;;;;;;5053040;28;20134;-69
2021/11/11 11:39:41;;;;;;;1.15;0.30;;;;;;;;;;5053083;28;20384;-69
2021/11/11 11:42:11;;;;;;;1.33;0.30;;;;;;;;;;5042191;28;20039;-69
2021/11/11 11:44:53;;;;;;;1.08;0.25;;;;;;;;;;5052919;28;20029;-69
2021/11/11 11:47:24;;;;;;;1.75;0.45;;;;;;;;;;5054109;28;20025;-69
2021/11/11 11:49:53;;;;;;;1.73;0.20;;;;;;;;;;5056768;28;20052;-69
2021/11/11 11:52:20;;;;;;;1.27;0.20;;;;;;;;;;5056801;28;20063;-69
2021/11/11 11:57:39;;;;;;;2.10;0.45;;;;;;;;;;5057135;28;20051;-69
2021/11/11 12:00:21;;;;;;;2.83;0.57;;;;;;;;;;5056544;28;20027;-70
2021/11/11 12:05:27;;;;;;;;;;;;;;;;;;5057321;28;20108;-70
2021/11/11 12:10:29;;;;;;;0.57;0.10;;;;;;;;;;5056427;28;20383;-67
2021/11/11 12:13:20;;;;;;;1.27;0.20;;;;;;;;;;5056590;28;20517;-67
2021/11/11 12:16:00;;;;;;;2.38;0.30;;;;;;;;;;5056419;28;20017;-66
2021/11/11 12:30:03;;;;;;;1.73;0.60;;;;;;;;;;5035491;28;20079;-67
2021/11/11 12:38:50;;;;;;;2.17;0.68;;;;;;;;;;5039746;28;20048;-67
2021/11/11 12:41:16;;;;;;;0.70;0.20;;;;;;;;;;5031611;28;20024;-67
2021/11/11 12:43:42;;;;;;;1.13;0.20;;;;;;;;;;5034201;28;20029;-66
2021/11/11 12:46:28;;;;;;;1.30;0.25;;;;;;;;;;5034281;28;20411;-68
2021/11/11 12:49:14;;;;;;;2.55;0.40;;;;;;;;;;5033695;28;20033;-67
2021/11/11 12:51:40;;;;;;;1.33;0.20;;;;;;;;;;5035474;28;20033;-67
2021/11/11 12:54:20;;;;;;;1.67;0.20;;;;;;;;;;5034283;28;20025;-67
2021/11/11 12:57:00;;;;;;;1.30;0.47;;;;;;;;;;5032942;28;20399;-67
2021/11/11 12:59:25;;;;;;;0.70;0.10;;;;;;;;;;5031971;28;20017;-67
2021/11/11 13:01:52;;;;;;;2.92;0.20;;;;;;;;;;5033047;28;20045;-68
2021/11/11 13:04:18;;;;;;;0.75;0.10;;;;;;;;;;5034433;28;20380;-67
2021/11/11 13:06:45;;;;;;;1.67;0.25;;;;;;;;;;5033337;28;20025;-67
2021/11/11 13:09:18;;;;;;;2.60;0.20;;;;;;;;;;5038324;28;20029;-67
2021/11/11 13:11:44;;;;;;;2.50;0.40;;;;;;;;;;5032989;28;20104;-67
2021/11/11 13:14:19;;;;;;;1.17;0.30;;;;;;;;;;5033095;28;20096;-66
2021/11/11 13:17:07;;;;;;;0.75;0.20;;;;;;;;;;5038898;28;20017;-69
2021/11/11 13:19:38;;;;;;;1.10;0.45;;;;;;;;;;5034384;28;20041;-67
2021/11/11 13:22:08;;;;;;;1.02;0.20;;;;;;;;;;5045149;28;20067;-68
2021/11/11 13:24:59;;;;;;;1.65;0.10;;;;;;;;;;5038188;28;20400;-66
2021/11/11 14:01:06;;;;;;;0.88;0.20;;;;;;;;;;5028542;28;21893;-68
2021/11/11 16:22:02;;;;;;;2.38;0.80;;;;;;;;;;5032859;28;20036;-66
2021/11/11 16:26:50;;;;;;;0.85;0.60;;;;;;;;;;5026010;28;20025;-69
2021/11/11 16:29:15;;;;;;;2.35;0.32;;;;;;;;;;5035772;28;20479;-69
2021/11/11 16:31:40;;;;;;;1.83;0.40;;;;;;;;;;5025937;28;20044;-68
2021/11/11 16:34:06;;;;;;;2.27;0.30;;;;;;;;;;5038588;28;20074;-70
2021/11/11 16:36:33;;;;;;;1.58;0.30;;;;;;;;;;5035060;28;20270;-67
2021/11/11 16:38:59;;;;;;;1.48;0.32;;;;;;;;;;5032175;28;20029;-66
2021/11/11 16:41:24;;;;;;;1.65;0.40;;;;;;;;;;5034812;28;20063;-64
2021/11/11 16:43:50;;;;;;;0.43;0.20;;;;;;;;;;5034407;28;20060;-65
2021/11/11 16:46:16;;;;;;;4.28;0.70;;;;;;;;;;5034171;28;20025;-67
2021/11/11 16:48:41;;;;;;;0.25;0.05;;;;;;;;;;5034297;28;20034;-66
2021/11/11 16:51:08;;;;;;;0.55;0.20;;;;;;;;;;5033534;28;20120;-64
2021/11/11 16:53:33;;;;;;;1.88;0.30;;;;;;;;;;5036630;28;20018;-64
2021/11/11 16:55:59;;;;;;;1.98;0.45;;;;;;;;;;5033782;28;20485;-66
2021/11/11 16:58:24;;;;;;;2.45;0.57;;;;;;;;;;5032242;28;20116;-66
2021/11/11 17:00:50;;;;;;;2.08;0.30;;;;;;;;;;5033428;28;20143;-64
2021/11/11 17:03:16;;;;;;;2.20;0.30;;;;;;;;;;5033281;28;20060;-64
2021/11/11 17:05:41;;;;;;;0.55;0.20;;;;;;;;;;5032636;28;20033;-64
2021/11/11 17:08:07;;;;;;;2.88;0.60;;;;;;;;;;5033362;28;20029;-65
2021/11/11 17:10:32;;;;;;;2.35;0.38;;;;;;;;;;5032523;28;20412;-64
2021/11/11 17:12:57;;;;;;;2.53;0.70;;;;;;;;;;5031937;28;20020;-66
2021/11/11 17:15:25;;;;;;;1.23;0.50;;;;;;;;;;5034393;28;20023;-66
2021/11/11 17:17:51;;;;;;;2.50;0.85;;;;;;;;;;5033268;28;20033;-66
2021/11/11 17:20:21;;;;;;;2.13;0.30;;;;;;;;;;5034041;28;20029;-68
2021/11/11 17:22:51;;;;;;;1.08;0.20;;;;;;;;;;5033633;28;20141;-66
2021/11/11 17:30:38;;;;;;;1.90;0.47;;;;;;;;;;5034345;28;20026;-66
2021/11/11 17:33:03;;;;;;;1.10;0.30;;;;;;;;;;5034819;28;20006;-66
2021/11/11 17:35:29;;;;;;;1.77;0.25;;;;;;;;;;5034916;28;20363;-65
2021/11/11 17:37:55;;;;;;;1.85;0.43;;;;;;;;;;5034609;28;20029;-66
2021/11/11 17:40:20;;;;;;;1.35;0.20;;;;;;;;;;5034621;28;20010;-65
2021/11/11 17:42:46;;;;;;;0.95;0.20;;;;;;;;;;5034667;28;20022;-67
2021/11/11 17:45:13;;;;;;;0.65;0.20;;;;;;;;;;5034002;28;20132;-65
2021/11/11 17:47:39;;;;;;;1.15;0.30;;;;;;;;;;5034877;28;20055;-66
2021/11/11 17:50:06;;;;;;;3.90;0.65;;;;;;;;;;5034344;28;20025;-66
2021/11/11 17:52:34;;;;;;;2.20;0.30;;;;;;;;;;5034444;28;20018;-66
2021/11/11 17:55:02;;;;;;;0.73;0.20;;;;;;;;;;5034464;28;20025;-66
2021/11/11 17:57:31;;;;;;;1.48;0.30;;;;;;;;;;5034252;28;20453;-64
2021/11/11 17:59:57;;;;;;;3.03;0.40;;;;;;;;;;5034372;28;20026;-66
2021/11/11 18:02:27;;;;;;;1.63;0.50;;;;;;;;;;5033950;28;20404;-66
2021/11/11 18:04:55;;;;;;;2.85;0.20;;;;;;;;;;5034041;28;20495;-67
2021/11/11 18:07:26;;;;;;;1.95;0.40;;;;;;;;;;5034147;28;20022;-65
2021/11/11 18:10:00;;;;;;;0.30;0.20;;;;;;;;;;5034045;28;20024;-65
2021/11/11 18:12:34;;;;;;;3.28;0.30;;;;;;;;;;5034328;28;20021;-66
2021/11/11 18:15:04;;;;;;;;;;;;;;;;;;5034301;28;20108;-66
2021/11/11 18:17:30;;;;;;;1.00;0.40;;;;;;;;;;5032556;28;19909;-66
2021/11/11 18:19:56;;;;;;;0.85;0.40;;;;;;;;;;5033950;28;20022;-66
2021/11/11 18:22:21;;;;;;;2.53;0.50;;;;;;;;;;5034063;28;20357;-67
2021/11/11 18:24:47;;;;;;;1.45;0.25;;;;;;;;;;5033994;28;20376;-66
2021/11/11 18:27:12;;;;;;;3.85;0.90;;;;;;;;;;5033694;28;20025;-65
2021/11/11 18:29:51;;;;;;;1.70;0.23;;;;;;;;;;5033677;28;20677;-66